Time;durP1;ratioP1;P1;durP2;ratioP2;P2;SDS_P1;SDS_P2;PMS_P1;PMS_P2;Temp;Humidity;BMP_temperature;BMP_pressure;BME280_temperature;BME280_humidity;BME280_pressure;Samples;Min_cycle;Max_cycle;Signal;HPM_P1;HPM_P2
2022/11/06 00:01:51;;;;;;;4.38;2.90;;;19.40;62.70;;;;;;5077351;28;20052;-83
2022/11/06 00:04:17;;;;;;;3.60;2.40;;;19.40;63.10;;;;;;5096157;28;20028;-81
2022/11/06 00:06:48;;;;;;;6.25;3.00;;;19.40;63.00;;;;;;5077015;28;20044;-77
2022/11/06 00:09:19;;;;;;;3.78;2.50;;;19.30;62.90;;;;;;5106762;28;20027;-78
2022/11/06 00:11:46;;;;;;;3.90;2.35;;;19.10;63.10;;;;;;5095234;28;20024;-85
2022/11/06 00:14:12;;;;;;;4.47;2.88;;;19.00;63.90;;;;;;5086925;28;20042;-78
2022/11/06 00:16:40;;;;;;;6.82;3.50;;;18.80;64.50;;;;;;5098140;28;20024;-78
2022/11/06 00:19:07;;;;;;;4.72;3.05;;;18.90;64.50;;;;;;5115467;28;20038;-83
2022/11/06 00:21:33;;;;;;;4.15;2.78;;;18.80;64.40;;;;;;5078152;28;20111;-85
2022/11/06 00:24:00;;;;;;;5.05;3.45;;;18.60;64.80;;;;;;5094931;28;20036;-80
2022/11/06 00:26:29;;;;;;;8.10;2.97;;;18.50;65.00;;;;;;5095436;28;20012;-78
2022/11/06 00:28:55;;;;;;;5.35;3.20;;;18.70;64.80;;;;;;5095428;28;20109;-84
2022/11/06 00:31:23;;;;;;;4.40;2.92;;;18.90;64.20;;;;;;5112897;28;20365;-84
2022/11/06 00:33:57;;;;;;;6.45;3.30;;;18.60;64.90;;;;;;5095288;28;20043;-78
2022/11/06 00:36:25;;;;;;;5.18;3.05;;;18.40;65.90;;;;;;5095123;28;20022;-78
2022/11/06 00:38:55;;;;;;;6.07;2.97;;;18.60;65.30;;;;;;5077080;28;20024;-78
2022/11/06 00:41:22;;;;;;;6.97;3.22;;;18.90;64.50;;;;;;5076551;28;20024;-78
2022/11/06 00:44:01;;;;;;;4.47;3.20;;;18.90;64.10;;;;;;5092590;28;20439;-74
2022/11/06 00:46:27;;;;;;;5.43;3.50;;;19.10;63.50;;;;;;5083752;28;20032;-82
2022/11/06 00:48:53;;;;;;;5.45;3.00;;;18.50;66.10;;;;;;5077393;28;20039;-83
2022/11/06 00:51:28;;;;;;;4.53;3.22;;;18.30;66.30;;;;;;5094623;28;20107;-79
2022/11/06 00:53:56;;;;;;;5.25;3.28;;;18.40;65.90;;;;;;5091117;28;20097;-78
2022/11/06 00:56:22;;;;;;;7.75;4.03;;;18.40;66.40;;;;;;5096523;28;20023;-78
2022/11/06 00:58:48;;;;;;;5.35;3.10;;;18.40;66.00;;;;;;5081321;28;20031;-79
2022/11/06 01:01:35;;;;;;;4.80;3.00;;;18.60;65.40;;;;;;5093148;28;20034;-78
2022/11/06 01:04:10;;;;;;;5.75;3.15;;;18.90;64.40;;;;;;5085222;28;20024;-82
2022/11/06 01:06:39;;;;;;;5.18;3.40;;;19.00;64.30;;;;;;5093303;28;20066;-78
2022/11/06 01:09:06;;;;;;;6.22;3.30;;;19.20;64.50;;;;;;5081129;28;20016;-79
2022/11/06 01:11:39;;;;;;;5.10;3.20;;;19.30;63.50;;;;;;5095588;28;20039;-79
2022/11/06 01:14:07;;;;;;;4.95;3.47;;;19.40;63.10;;;;;;5113139;28;20031;-79
2022/11/06 01:16:34;;;;;;;5.00;3.20;;;19.40;63.20;;;;;;5089041;28;20081;-83
2022/11/06 01:19:00;;;;;;;6.85;3.50;;;19.30;63.70;;;;;;5076043;28;20028;-78
2022/11/06 01:21:37;;;;;;;5.07;2.90;;;19.20;63.70;;;;;;5096343;28;20024;-78
2022/11/06 01:24:08;;;;;;;6.03;3.50;;;18.90;63.80;;;;;;5094032;28;20027;-78
2022/11/06 01:26:34;;;;;;;6.00;3.50;;;18.90;64.50;;;;;;5094223;28;20100;-78
2022/11/06 01:29:00;;;;;;;5.75;3.10;;;19.10;64.10;;;;;;5089169;28;20027;-78
2022/11/06 01:31:28;;;;;;;7.95;3.47;;;19.30;63.40;;;;;;5077815;28;20024;-77
2022/11/06 01:33:55;;;;;;;5.40;3.33;;;19.30;63.20;;;;;;5096989;28;20093;-83
2022/11/06 01:36:22;;;;;;;4.93;3.05;;;19.30;63.40;;;;;;5113828;28;20024;-84
2022/11/06 01:38:50;;;;;;;7.18;3.30;;;19.30;63.10;;;;;;5088417;28;20464;-83
2022/11/06 01:41:26;;;;;;;6.30;3.33;;;18.90;63.90;;;;;;5083943;28;20024;-84
2022/11/06 01:43:59;;;;;;;5.63;3.55;;;18.90;64.10;;;;;;5074924;28;20448;-81
2022/11/06 01:46:31;;;;;;;6.10;3.90;;;18.90;64.00;;;;;;5076234;28;20468;-84
2022/11/06 01:49:17;;;;;;;6.53;4.43;;;18.80;64.10;;;;;;5089177;28;20361;-85
2022/11/06 01:51:51;;;;;;;5.60;3.60;;;19.00;64.10;;;;;;5095675;28;20036;-78
2022/11/06 01:54:17;;;;;;;7.53;3.85;;;19.10;63.90;;;;;;5093250;28;20020;-78
2022/11/06 01:56:46;;;;;;;6.13;4.35;;;19.10;63.80;;;;;;5075505;28;20020;-78
2022/11/06 01:59:14;;;;;;;5.57;3.90;;;19.10;63.80;;;;;;5101119;28;20024;-83
2022/11/06 02:01:40;;;;;;;6.40;3.80;;;19.30;63.60;;;;;;5075372;28;20027;-77
2022/11/06 02:04:11;;;;;;;6.05;3.40;;;19.20;63.30;;;;;;5092268;28;20028;-82
2022/11/06 02:06:37;;;;;;;6.07;4.00;;;19.20;63.10;;;;;;5095337;28;20043;-76
2022/11/06 02:09:10;;;;;;;6.22;4.20;;;18.90;64.00;;;;;;5077930;28;20550;-83
2022/11/06 02:11:56;;;;;;;6.03;4.07;;;18.90;64.20;;;;;;5076624;28;20435;-77
2022/11/06 02:14:38;;;;;;;6.38;4.40;;;18.90;64.10;;;;;;5010603;28;20057;-79
2022/11/06 02:17:19;;;;;;;6.60;4.28;;;18.90;64.20;;;;;;5003361;28;20043;-85
2022/11/06 02:19:45;;;;;;;;;;;18.80;64.20;;;;;;4975690;28;20034;-79
2022/11/06 02:22:39;;;;;;;6.30;4.15;;;18.90;64.10;;;;;;5002805;28;19936;-83
2022/11/06 02:25:16;;;;;;;6.70;4.15;;;19.10;63.60;;;;;;4983632;28;20528;-84
2022/11/06 02:27:47;;;;;;;7.18;3.78;;;19.20;63.40;;;;;;5003960;28;20430;-81
2022/11/06 02:30:15;;;;;;;6.43;3.70;;;18.60;64.30;;;;;;4988851;28;20038;-83
2022/11/06 02:33:00;;;;;;;7.10;4.40;;;18.30;64.90;;;;;;4987989;28;20050;-85
2022/11/06 02:35:37;;;;;;;7.90;4.30;;;18.20;65.30;;;;;;4994480;28;20643;-79
2022/11/06 02:38:06;;;;;;;6.43;4.13;;;18.40;65.40;;;;;;4989818;28;20039;-79
2022/11/06 02:40:36;;;;;;;5.68;3.83;;;18.60;65.00;;;;;;4992550;28;20026;-85
2022/11/06 02:43:05;;;;;;;7.53;4.40;;;18.70;64.50;;;;;;4986769;28;20387;-80
2022/11/06 02:45:38;;;;;;;8.10;4.33;;;18.90;64.10;;;;;;4990374;28;20125;-77
2022/11/06 02:48:07;;;;;;;7.07;4.07;;;19.00;63.60;;;;;;4995508;28;20044;-79
2022/11/06 02:50:39;;;;;;;6.97;4.35;;;19.10;63.90;;;;;;5010697;28;20069;-79
2022/11/06 02:53:08;;;;;;;7.15;4.85;;;19.20;63.50;;;;;;5078866;28;20042;-76
2022/11/06 02:55:42;;;;;;;6.10;4.25;;;19.20;63.30;;;;;;5078213;28;20511;-76
2022/11/06 02:58:34;;;;;;;6.00;4.20;;;19.10;63.60;;;;;;5078113;28;20063;-77
2022/11/06 03:01:04;;;;;;;6.32;4.32;;;18.90;63.80;;;;;;5099365;28;20016;-79
2022/11/06 03:03:35;;;;;;;5.88;4.30;;;18.70;65.10;;;;;;5096309;28;20032;-79
2022/11/06 03:06:15;;;;;;;6.50;4.63;;;18.80;64.30;;;;;;5090034;28;20039;-80
2022/11/06 03:08:53;;;;;;;6.28;4.35;;;19.10;63.90;;;;;;5098596;28;20030;-78
2022/11/06 03:11:26;;;;;;;7.03;4.30;;;19.20;63.60;;;;;;5096045;28;20028;-79
2022/11/06 03:13:51;;;;;;;6.65;4.40;;;19.20;64.00;;;;;;5078428;28;20039;-78
2022/11/06 03:16:35;;;;;;;6.22;4.10;;;19.00;64.10;;;;;;5078302;28;20020;-80
2022/11/06 03:19:27;;;;;;;7.97;5.15;;;18.90;64.10;;;;;;5073798;28;20050;-80
2022/11/06 03:22:00;;;;;;;6.78;4.45;;;18.80;65.20;;;;;;5082461;28;20529;-80
2022/11/06 03:24:44;;;;;;;6.35;4.32;;;19.10;64.30;;;;;;5103480;28;20028;-85
2022/11/06 03:27:22;;;;;;;7.53;5.40;;;19.00;64.30;;;;;;5078131;28;20042;-80
2022/11/06 03:30:04;;;;;;;8.70;5.07;;;18.90;64.40;;;;;;5088725;28;20089;-80
2022/11/06 03:32:46;;;;;;;9.00;5.60;;;19.10;64.40;;;;;;5105602;28;20050;-81
2022/11/06 03:35:21;;;;;;;8.00;4.97;;;19.20;64.00;;;;;;5078998;28;20020;-84
2022/11/06 03:38:00;;;;;;;9.45;5.20;;;19.00;65.10;;;;;;5085956;28;20032;-81
2022/11/06 03:40:30;;;;;;;9.38;5.57;;;19.10;64.30;;;;;;5077617;28;20028;-83
2022/11/06 03:43:01;;;;;;;9.32;5.22;;;19.20;64.40;;;;;;5091205;28;20032;-79
2022/11/06 03:45:28;;;;;;;9.35;5.80;;;19.10;65.00;;;;;;5093666;28;20040;-80
2022/11/06 03:47:56;;;;;;;7.13;5.10;;;19.30;64.30;;;;;;5099089;28;20412;-77
2022/11/06 03:50:28;;;;;;;5.93;4.45;;;19.40;63.80;;;;;;5081336;28;20507;-78
2022/11/06 03:53:21;;;;;;;7.72;5.40;;;19.60;63.30;;;;;;5086252;28;20040;-78
2022/11/06 03:55:56;;;;;;;7.72;5.07;;;19.10;64.30;;;;;;5078501;28;20016;-83
2022/11/06 03:58:26;;;;;;;7.93;5.50;;;19.10;64.40;;;;;;5097614;28;20382;-80
2022/11/06 04:00:55;;;;;;;8.60;5.38;;;19.40;63.70;;;;;;5116453;28;20103;-80
2022/11/06 04:03:30;;;;;;;7.88;5.28;;;19.50;63.30;;;;;;5115865;28;20078;-80
2022/11/06 04:06:11;;;;;;;7.90;5.43;;;19.30;64.00;;;;;;5116160;28;20047;-81
2022/11/06 04:14:13;;;;;;;8.10;5.13;;;19.40;63.60;;;;;;5116179;28;20519;-80
2022/11/06 04:16:47;;;;;;;6.72;4.90;;;19.30;63.60;;;;;;5115998;28;20023;-80
2022/11/06 04:19:18;;;;;;;6.70;4.55;;;19.20;63.50;;;;;;5091820;28;20516;-83
2022/11/06 04:21:53;;;;;;;9.57;5.35;;;19.10;63.90;;;;;;5094543;28;20072;-81
2022/11/06 04:27:12;;;;;;;8.00;5.18;;;18.80;64.60;;;;;;5114344;28;20057;-81
2022/11/06 04:29:47;;;;;;;10.48;5.50;;;19.00;64.30;;;;;;5081770;28;20086;-79
2022/11/06 04:32:12;;;;;;;7.97;5.07;;;18.90;64.30;;;;;;5087402;28;20040;-80
2022/11/06 04:35:04;;;;;;;9.35;4.90;;;19.00;64.40;;;;;;5100117;28;20028;-84
2022/11/06 04:37:39;;;;;;;8.07;5.13;;;19.10;63.80;;;;;;5114696;28;20044;-80
2022/11/06 04:40:38;;;;;;;10.82;5.13;;;18.90;64.20;;;;;;5109054;28;20072;-85
2022/11/06 04:43:18;;;;;;;8.35;5.30;;;18.70;64.70;;;;;;5081493;28;20035;-80
2022/11/06 04:45:51;;;;;;;8.93;5.20;;;18.70;65.10;;;;;;5081486;28;20078;-81
2022/11/06 04:48:17;;;;;;;6.85;4.93;;;18.80;64.70;;;;;;5109258;28;20103;-80
2022/11/06 04:50:51;;;;;;;10.32;4.95;;;18.80;64.40;;;;;;5090291;28;20383;-80
2022/11/06 04:53:18;;;;;;;8.60;5.18;;;18.80;64.20;;;;;;5091232;28;20389;-84
2022/11/06 04:55:50;;;;;;;6.97;5.03;;;18.70;64.60;;;;;;5096627;28;20016;-80
2022/11/06 04:58:16;;;;;;;7.20;5.10;;;18.80;64.80;;;;;;5075995;28;20060;-80
2022/11/06 05:00:46;;;;;;;11.00;9.95;;;18.80;64.80;;;;;;5103723;28;20055;-84
2022/11/06 05:03:13;;;;;;;12.60;5.80;;;18.90;64.50;;;;;;5103568;28;20023;-83
2022/11/06 05:05:38;;;;;;;9.13;5.80;;;19.00;64.30;;;;;;5075840;28;20583;-80
2022/11/06 05:08:04;;;;;;;7.20;5.10;;;19.00;64.10;;;;;;5106616;28;20027;-80
2022/11/06 05:10:30;;;;;;;9.48;6.00;;;19.10;63.80;;;;;;5096265;28;20110;-79
2022/11/06 05:12:55;;;;;;;9.88;6.57;;;19.20;63.80;;;;;;5085935;28;20036;-80
2022/11/06 05:15:21;;;;;;;11.25;7.18;;;19.30;63.30;;;;;;5088103;28;20118;-81
2022/11/06 05:17:47;;;;;;;13.75;6.57;;;19.30;63.40;;;;;;5094807;28;20027;-80
2022/11/06 05:20:12;;;;;;;10.07;6.22;;;19.20;63.20;;;;;;5113561;28;20028;-83
2022/11/06 05:22:57;;;;;;;10.73;6.07;;;19.20;63.60;;;;;;5103148;28;20387;-80
2022/11/06 05:25:23;;;;;;;9.40;6.47;;;19.10;63.80;;;;;;5113487;28;20032;-80
2022/11/06 05:27:49;;;;;;;10.27;6.47;;;19.10;63.50;;;;;;5091827;28;20024;-80
2022/11/06 05:30:15;;;;;;;16.40;7.32;;;19.10;63.50;;;;;;5078002;28;20092;-84
2022/11/06 05:32:41;;;;;;;12.07;7.13;;;19.00;63.90;;;;;;5079701;28;20476;-80
2022/11/06 05:35:07;;;;;;;9.93;6.78;;;19.00;63.70;;;;;;5089408;28;20023;-80
2022/11/06 05:37:32;;;;;;;18.15;9.82;;;19.10;63.70;;;;;;5095946;28;20081;-84
2022/11/06 05:39:58;;;;;;;16.35;10.77;;;19.20;63.70;;;;;;5096245;28;20047;-80
2022/11/06 05:42:24;;;;;;;30.60;18.33;;;19.30;63.50;;;;;;5096440;28;20494;-80
2022/11/06 05:44:49;;;;;;;11.90;6.93;;;19.10;64.00;;;;;;5095475;28;20527;-79
2022/11/06 05:47:15;;;;;;;11.35;7.68;;;18.90;64.10;;;;;;5095919;28;20023;-84
2022/11/06 05:49:41;;;;;;;10.75;7.55;;;18.90;64.80;;;;;;5093848;28;20028;-82
2022/11/06 05:52:06;;;;;;;15.00;9.77;;;18.80;64.30;;;;;;5093776;28;20468;-78
2022/11/06 05:54:32;;;;;;;12.65;8.57;;;18.70;64.90;;;;;;5095465;28;20032;-78
2022/11/06 05:56:58;;;;;;;23.10;16.08;;;18.70;64.60;;;;;;5096618;28;20030;-79
2022/11/06 05:59:23;;;;;;;15.55;11.35;;;18.70;64.30;;;;;;5095239;28;20106;-80
2022/11/06 06:01:49;;;;;;;13.10;8.20;;;18.80;64.50;;;;;;5095460;28;20169;-78
2022/11/06 06:04:15;;;;;;;10.50;7.28;;;18.90;64.30;;;;;;5075747;28;20039;-79
2022/11/06 06:06:41;;;;;;;10.90;7.25;;;18.90;64.40;;;;;;5074765;28;20053;-86
2022/11/06 06:09:07;;;;;;;11.25;7.22;;;19.00;64.10;;;;;;5083360;28;20032;-83
2022/11/06 06:11:33;;;;;;;10.07;6.55;;;18.90;64.40;;;;;;5070198;28;20059;-78
2022/11/06 06:13:59;;;;;;;12.10;7.60;;;18.90;64.40;;;;;;5071603;28;20438;-81
2022/11/06 06:16:25;;;;;;;12.52;8.45;;;19.10;64.00;;;;;;5072865;28;20358;-78
2022/11/06 06:18:51;;;;;;;8.25;6.30;;;19.10;63.80;;;;;;5091617;28;20024;-81
2022/11/06 06:21:16;;;;;;;11.75;6.95;;;19.20;63.90;;;;;;5075055;28;20369;-78
2022/11/06 06:23:42;;;;;;;13.98;7.80;;;19.10;64.10;;;;;;5073955;28;20028;-77
2022/11/06 06:26:08;;;;;;;10.52;7.00;;;19.10;64.10;;;;;;5074323;28;20520;-84
2022/11/06 06:28:34;;;;;;;14.32;6.82;;;19.10;63.70;;;;;;5092057;28;20063;-83
2022/11/06 06:31:04;;;;;;;12.98;7.40;;;19.10;63.80;;;;;;5091523;28;20048;-77
2022/11/06 06:33:30;;;;;;;10.40;7.40;;;19.00;64.50;;;;;;5090884;28;20088;-79
2022/11/06 06:35:56;;;;;;;10.18;6.75;;;18.90;64.50;;;;;;5091625;28;20426;-80
2022/11/06 06:38:22;;;;;;;10.70;6.60;;;19.00;64.10;;;;;;5089989;28;20024;-79
2022/11/06 06:40:47;;;;;;;13.70;9.40;;;19.00;64.40;;;;;;5061127;28;20016;-79
2022/11/06 06:43:13;;;;;;;11.60;7.65;;;18.90;64.00;;;;;;5082695;28;20047;-78
2022/11/06 06:45:39;;;;;;;17.98;11.63;;;18.90;64.20;;;;;;5069456;28;20054;-79
2022/11/06 06:48:05;;;;;;;12.40;9.25;;;19.10;63.90;;;;;;5092519;28;20401;-78
2022/11/06 06:50:31;;;;;;;12.30;8.25;;;19.20;64.00;;;;;;5079233;28;20111;-81
2022/11/06 06:52:58;;;;;;;9.63;6.78;;;19.30;63.90;;;;;;5092105;28;20439;-77
2022/11/06 06:55:24;;;;;;;13.57;7.22;;;19.40;63.70;;;;;;5091746;28;20031;-82
2022/11/06 06:58:00;;;;;;;11.70;7.53;;;19.40;63.80;;;;;;5093820;28;20419;-78
2022/11/06 07:00:26;;;;;;;11.70;8.27;;;19.50;63.70;;;;;;5091410;28;20504;-78
2022/11/06 07:02:52;;;;;;;12.52;8.65;;;19.60;63.20;;;;;;5074293;28;20051;-79
2022/11/06 07:05:17;;;;;;;12.50;8.38;;;19.80;62.70;;;;;;5093938;28;20413;-83
2022/11/06 07:07:43;;;;;;;12.20;8.40;;;19.80;62.90;;;;;;5106322;28;20069;-84
2022/11/06 07:10:09;;;;;;;12.30;8.30;;;19.80;62.70;;;;;;5102381;28;20079;-78
2022/11/06 07:12:34;;;;;;;14.85;8.43;;;19.80;62.80;;;;;;5104535;28;20027;-82
2022/11/06 07:15:00;;;;;;;15.52;8.98;;;19.80;62.50;;;;;;5094604;28;20020;-80
2022/11/06 07:17:26;;;;;;;14.15;9.25;;;19.80;62.70;;;;;;5091774;28;20028;-80
2022/11/06 07:19:52;;;;;;;11.18;7.93;;;19.80;62.80;;;;;;5092015;28;20555;-79
2022/11/06 07:22:18;;;;;;;11.88;7.82;;;19.70;62.80;;;;;;5116080;28;20125;-80
2022/11/06 07:24:43;;;;;;;14.10;8.82;;;19.50;63.30;;;;;;5093751;28;20024;-83
2022/11/06 07:27:09;;;;;;;13.60;8.35;;;19.10;63.70;;;;;;5094874;28;20076;-78
2022/11/06 07:29:35;;;;;;;12.38;8.45;;;18.90;64.40;;;;;;5099328;28;20035;-80
2022/11/06 07:32:00;;;;;;;12.88;8.43;;;18.90;64.50;;;;;;5129307;28;20028;-86
2022/11/06 07:34:26;;;;;;;15.07;8.45;;;18.70;65.00;;;;;;5094493;28;20024;-83
2022/11/06 07:36:52;;;;;;;13.50;8.95;;;18.80;65.10;;;;;;5118491;27;20413;-83
2022/11/06 07:39:17;;;;;;;14.85;9.18;;;18.80;64.80;;;;;;5079238;28;20024;-83
2022/11/06 07:41:43;;;;;;;14.32;9.50;;;18.80;64.90;;;;;;5086609;28;20032;-82
2022/11/06 07:44:10;;;;;;;13.35;8.63;;;18.70;65.40;;;;;;5114066;28;20031;-81
2022/11/06 07:46:35;;;;;;;15.50;9.80;;;18.70;65.20;;;;;;5091239;28;20055;-84
2022/11/06 07:49:01;;;;;;;16.25;9.98;;;18.80;65.10;;;;;;5084150;28;20054;-84
2022/11/06 07:51:27;;;;;;;15.48;9.45;;;19.00;64.60;;;;;;5098458;28;20027;-83
2022/11/06 07:53:52;;;;;;;17.73;9.77;;;19.10;64.20;;;;;;5094757;28;20066;-82
2022/11/06 07:56:18;;;;;;;17.30;10.13;;;19.10;64.40;;;;;;5077737;28;20024;-81
2022/11/06 07:58:44;;;;;;;15.00;9.18;;;19.10;64.40;;;;;;5096441;28;20073;-82
2022/11/06 08:01:15;;;;;;;14.38;9.45;;;19.10;64.50;;;;;;5100719;28;20020;-82
2022/11/06 08:03:40;;;;;;;15.73;10.80;;;19.00;64.60;;;;;;5102207;28;20426;-81
2022/11/06 08:06:06;;;;;;;15.68;9.55;;;19.10;64.40;;;;;;5098325;28;20492;-84
2022/11/06 08:08:32;;;;;;;14.35;9.82;;;19.40;64.10;;;;;;5088989;28;20353;-81
2022/11/06 08:11:05;;;;;;;16.10;10.95;;;19.20;64.40;;;;;;5096985;28;20391;-80
2022/11/06 08:13:32;;;;;;;16.02;10.02;;;19.30;64.70;;;;;;5078062;28;20059;-84
2022/11/06 08:16:02;;;;;;;15.10;10.13;;;19.30;64.30;;;;;;5095764;28;20023;-82
2022/11/06 08:18:27;;;;;;;15.35;10.43;;;19.30;64.00;;;;;;5086093;28;20407;-82
2022/11/06 08:20:53;;;;;;;18.55;11.25;;;19.30;64.30;;;;;;5078841;28;20032;-84
2022/11/06 08:23:19;;;;;;;19.33;11.90;;;19.40;64.20;;;;;;5077930;28;20024;-81
2022/11/06 08:25:44;;;;;;;17.15;11.98;;;19.50;63.80;;;;;;5091789;28;20494;-78
2022/11/06 08:28:10;;;;;;;17.33;11.98;;;19.30;65.10;;;;;;5112965;28;20521;-84
2022/11/06 08:30:36;;;;;;;16.10;10.70;;;19.50;64.50;;;;;;5087416;28;20020;-83
2022/11/06 08:33:04;;;;;;;17.20;11.57;;;19.60;64.20;;;;;;5111992;28;20036;-82
2022/11/06 08:35:30;;;;;;;21.10;13.48;;;19.50;64.20;;;;;;5103575;28;20016;-81
2022/11/06 08:37:56;;;;;;;33.17;20.50;;;19.70;64.20;;;;;;5104445;27;20023;-81
2022/11/06 08:40:22;;;;;;;30.40;20.20;;;19.90;63.70;;;;;;5111512;28;20103;-78
2022/11/06 08:42:48;;;;;;;25.48;16.92;;;20.10;63.70;;;;;;5097263;28;20027;-82
2022/11/06 08:45:14;;;;;;;21.23;12.15;;;20.20;63.10;;;;;;5095084;28;20026;-82
2022/11/06 08:47:39;;;;;;;22.23;14.30;;;20.10;63.10;;;;;;5106134;28;20526;-79
2022/11/06 08:50:05;;;;;;;15.48;10.80;;;20.10;63.60;;;;;;5102490;28;20034;-81
2022/11/06 08:52:31;;;;;;;16.95;10.73;;;20.00;64.30;;;;;;5096830;28;20046;-81
2022/11/06 08:54:57;;;;;;;16.58;9.82;;;20.10;63.80;;;;;;5077906;28;20024;-82
2022/11/06 08:57:22;;;;;;;15.15;9.93;;;20.10;63.50;;;;;;5112710;28;20035;-86
2022/11/06 08:59:48;;;;;;;14.52;9.52;;;20.20;63.30;;;;;;5093580;28;20027;-82
2022/11/06 09:02:14;;;;;;;16.15;9.93;;;20.30;63.20;;;;;;5097660;28;20490;-78
2022/11/06 09:04:40;;;;;;;15.30;10.25;;;20.30;62.70;;;;;;5098819;28;20032;-83
2022/11/06 09:07:06;;;;;;;12.35;8.15;;;20.30;63.00;;;;;;5108046;27;20495;-83
2022/11/06 09:09:32;;;;;;;13.45;9.18;;;20.30;62.90;;;;;;5104435;28;20472;-83
2022/11/06 09:11:59;;;;;;;16.77;11.02;;;20.30;63.40;;;;;;5097386;28;20023;-84
2022/11/06 09:14:26;;;;;;;25.40;12.85;;;20.40;63.50;;;;;;5096703;28;20019;-84
2022/11/06 09:16:52;;;;;;;16.25;12.20;;;20.50;63.40;;;;;;5114241;27;20022;-81
2022/11/06 09:19:18;;;;;;;20.45;11.73;;;20.70;63.60;;;;;;5084407;28;20621;-79
2022/11/06 09:21:44;;;;;;;14.95;9.75;;;20.90;63.10;;;;;;5092382;28;20032;-83
2022/11/06 09:24:10;;;;;;;12.95;7.38;;;21.00;63.10;;;;;;5077249;28;20106;-83
2022/11/06 09:26:35;;;;;;;10.85;8.25;;;20.90;63.50;;;;;;5076506;28;20032;-83
2022/11/06 09:29:01;;;;;;;12.02;8.15;;;20.80;63.40;;;;;;5076834;28;20410;-82
2022/11/06 09:31:27;;;;;;;11.77;8.23;;;20.90;62.40;;;;;;5095488;28;20023;-83
2022/11/06 09:33:53;;;;;;;15.52;8.60;;;21.10;62.70;;;;;;5105878;28;20036;-81
2022/11/06 09:36:19;;;;;;;11.93;8.65;;;21.40;62.20;;;;;;5079644;28;20067;-80
2022/11/06 09:38:45;;;;;;;9.77;7.00;;;21.40;62.40;;;;;;5085189;28;20053;-84
2022/11/06 09:41:19;;;;;;;11.60;7.78;;;21.50;61.90;;;;;;5093989;28;20073;-83
2022/11/06 09:44:11;;;;;;;11.88;8.20;;;21.20;62.00;;;;;;5088190;28;20081;-79
2022/11/06 09:46:44;;;;;;;10.40;6.97;;;21.40;62.20;;;;;;5092849;28;20093;-84
2022/11/06 09:49:31;;;;;;;12.02;6.50;;;21.60;62.00;;;;;;5075856;28;20111;-83
2022/11/06 09:52:21;;;;;;;14.02;7.70;;;21.80;62.00;;;;;;5075967;28;20396;-84
2022/11/06 09:54:55;;;;;;;87.50;74.22;;;21.90;61.70;;;;;;5075635;28;20028;-83
2022/11/06 09:57:41;;;;;;;19.98;12.30;;;22.00;60.70;;;;;;5105184;28;20142;-83
2022/11/06 10:00:12;;;;;;;9.18;6.75;;;21.60;61.00;;;;;;5105842;28;20058;-77
2022/11/06 10:02:56;;;;;;;8.82;5.07;;;21.40;61.10;;;;;;5094752;28;20110;-84
2022/11/06 10:05:35;;;;;;;8.18;5.82;;;21.10;61.10;;;;;;5082308;28;20131;-86
2022/11/06 10:08:11;;;;;;;9.30;6.05;;;20.70;62.30;;;;;;5075844;28;20027;-85
2022/11/06 10:10:49;;;;;;;8.13;5.32;;;20.80;62.80;;;;;;5075781;28;20047;-84
2022/11/06 10:13:29;;;;;;;7.35;5.30;;;20.90;62.50;;;;;;5094231;28;20121;-83
2022/11/06 10:16:10;;;;;;;8.20;4.82;;;21.00;61.60;;;;;;5076702;28;20108;-83
2022/11/06 10:18:50;;;;;;;6.30;4.18;;;20.80;62.20;;;;;;5075640;28;20043;-83
2022/11/06 10:21:18;;;;;;;7.30;4.60;;;20.90;62.50;;;;;;5075458;28;20048;-83
2022/11/06 10:23:52;;;;;;;7.35;4.72;;;20.70;62.70;;;;;;5095133;28;20071;-84
2022/11/06 10:26:26;;;;;;;9.77;5.63;;;20.70;63.10;;;;;;5094381;28;20027;-80
2022/11/06 10:29:19;;;;;;;7.72;5.45;;;21.00;62.40;;;;;;5079467;28;20149;-80
2022/11/06 10:32:03;;;;;;;10.27;7.05;;;21.20;61.80;;;;;;5094998;28;20511;-84
2022/11/06 10:34:40;;;;;;;7.80;4.60;;;21.20;61.30;;;;;;5096586;28;20028;-79
2022/11/06 10:37:15;;;;;;;7.20;4.82;;;20.60;61.70;;;;;;5092471;28;20074;-78
2022/11/06 10:39:41;;;;;;;10.73;7.68;;;20.40;62.90;;;;;;5105723;28;20032;-80
2022/11/06 10:42:30;;;;;;;12.68;8.00;;;20.60;63.10;;;;;;5090490;28;20016;-82
2022/11/06 10:45:01;;;;;;;25.25;17.38;;;20.60;63.70;;;;;;5093174;28;20031;-79
2022/11/06 10:47:32;;;;;;;;;;;20.80;63.40;;;;;;5113654;28;20020;-78
2022/11/06 10:50:03;;;;;;;14.70;9.82;;;21.00;62.80;;;;;;5113736;28;20461;-84
2022/11/06 10:52:35;;;;;;;13.85;10.38;;;21.20;62.60;;;;;;5094857;28;20061;-79
2022/11/06 10:55:09;;;;;;;14.48;9.80;;;21.30;62.50;;;;;;5094880;28;20020;-83
2022/11/06 10:57:50;;;;;;;15.82;10.07;;;21.10;62.00;;;;;;5095327;28;20081;-83
2022/11/06 11:00:16;;;;;;;11.35;7.90;;;20.90;62.60;;;;;;5101489;28;20016;-78
2022/11/06 11:03:06;;;;;;;18.30;14.07;;;20.90;62.80;;;;;;5094546;28;20028;-79
2022/11/06 11:05:41;;;;;;;11.07;8.00;;;21.10;62.30;;;;;;5098396;28;20436;-83
2022/11/06 11:08:30;;;;;;;28.35;22.00;;;21.30;62.10;;;;;;5096260;28;20107;-85
2022/11/06 11:11:12;;;;;;;18.05;14.40;;;21.40;62.00;;;;;;5079344;28;20020;-84
2022/11/06 11:13:39;;;;;;;12.80;10.45;;;21.40;63.00;;;;;;5089516;28;20055;-80
2022/11/06 11:16:32;;;;;;;17.25;11.30;;;21.50;62.50;;;;;;5110791;28;20387;-85
2022/11/06 11:19:24;;;;;;;9.93;6.70;;;21.60;61.90;;;;;;5097901;28;20036;-86
2022/11/06 11:21:56;;;;;;;8.90;6.57;;;21.60;61.70;;;;;;5091130;27;20096;-85
2022/11/06 11:24:22;;;;;;;56.42;37.42;;;21.50;61.40;;;;;;5100901;28;20032;-84
2022/11/06 11:26:59;;;;;;;22.30;16.50;;;21.30;62.10;;;;;;5099355;27;20028;-85
2022/11/06 11:29:31;;;;;;;15.32;12.73;;;21.50;62.20;;;;;;5091749;28;20024;-82
2022/11/06 11:32:05;;;;;;;9.38;6.00;;;21.60;61.70;;;;;;5116077;28;20055;-88
2022/11/06 11:34:35;;;;;;;9.82;6.72;;;21.80;61.20;;;;;;5080817;28;20400;-85
2022/11/06 11:37:04;;;;;;;11.73;8.27;;;21.80;61.40;;;;;;5079071;28;20023;-85
2022/11/06 11:39:36;;;;;;;9.07;6.13;;;21.30;62.10;;;;;;5079062;28;20039;-83
2022/11/06 11:42:15;;;;;;;15.15;11.25;;;20.90;63.50;;;;;;5078340;28;20077;-87
2022/11/06 11:44:41;;;;;;;17.33;15.68;;;21.00;63.00;;;;;;5084675;28;20479;-88
2022/11/06 11:47:21;;;;;;;10.75;6.72;;;21.00;63.10;;;;;;5078712;28;20031;-89
2022/11/06 11:49:47;;;;;;;18.20;16.40;;;21.20;62.80;;;;;;5078190;28;20020;-87
2022/11/06 11:52:18;;;;;;;11.05;8.40;;;21.50;62.30;;;;;;5078199;28;20304;-80
2022/11/06 11:54:49;;;;;;;14.18;12.65;;;21.70;61.60;;;;;;5106868;28;20063;-79
2022/11/06 11:57:25;;;;;;;64.45;57.80;;;21.80;61.20;;;;;;5098673;28;20074;-85
2022/11/06 11:59:59;;;;;;;97.47;80.30;;;21.80;60.70;;;;;;5098950;28;20028;-88
2022/11/06 12:02:39;;;;;;;21.25;18.33;;;21.70;61.20;;;;;;5098633;28;20114;-85
2022/11/06 12:05:15;;;;;;;9.52;7.22;;;21.60;61.60;;;;;;5081012;28;20066;-88
2022/11/06 12:07:46;;;;;;;8.98;6.68;;;21.40;61.90;;;;;;5077744;28;20131;-83
2022/11/06 12:10:31;;;;;;;8.30;6.07;;;21.50;61.70;;;;;;5078030;28;20024;-89
2022/11/06 12:13:00;;;;;;;8.80;5.07;;;20.90;61.60;;;;;;5096157;28;20115;-85
2022/11/06 12:15:59;;;;;;;9.57;4.82;;;20.40;63.40;;;;;;5082396;28;20103;-87
2022/11/06 12:18:40;;;;;;;7.55;4.65;;;20.00;63.70;;;;;;5111237;28;20016;-86
2022/11/06 12:21:20;;;;;;;6.78;4.63;;;19.90;63.90;;;;;;5090476;27;20434;-87
2022/11/06 12:23:50;;;;;;;;;;;20.10;62.90;;;;;;5088466;28;20557;-89
2022/11/06 12:26:33;;;;;;;20.75;12.85;;;20.30;62.10;;;;;;5113233;28;20316;-89
2022/11/06 12:29:18;;;;;;;18.30;11.30;;;20.50;62.30;;;;;;5093069;28;20028;-88
2022/11/06 12:31:53;;;;;;;12.93;9.63;;;20.80;61.60;;;;;;5098635;28;20031;-90
2022/11/06 12:34:34;;;;;;;11.57;6.90;;;21.00;60.60;;;;;;5097066;28;20028;-89
2022/11/06 12:37:09;;;;;;;;;;;20.80;60.70;;;;;;5097816;28;20710;-90
2022/11/06 12:39:39;;;;;;;52.47;26.42;;;20.70;62.00;;;;;;5080865;28;19911;-89
2022/11/06 12:42:09;;;;;;;16.90;10.13;;;21.00;62.30;;;;;;5077629;28;20024;-83
2022/11/06 12:44:35;;;;;;;;;;;21.30;61.40;;;;;;5095470;28;20025;-79
2022/11/06 12:47:39;;;;;;;7.38;5.10;;;21.60;60.10;;;;;;5084614;28;20592;-80
2022/11/06 12:50:11;;;;;;;7.55;5.65;;;21.70;60.00;;;;;;4746872;28;10001171;-79
2022/11/06 12:52:57;;;;;;;15.02;11.82;;;21.80;59.70;;;;;;5074441;28;20575;-80
2022/11/06 12:55:32;;;;;;;8.13;6.35;;;22.00;59.90;;;;;;5089888;28;20031;-79
2022/11/06 12:58:13;;;;;;;34.63;25.35;;;22.00;60.00;;;;;;5076858;28;20020;-87
2022/11/06 13:01:05;;;;;;;7.80;5.70;;;22.20;59.60;;;;;;5076875;28;20043;-81
2022/11/06 13:03:44;;;;;;;8.80;6.32;;;22.00;60.00;;;;;;5092657;28;20019;-80
2022/11/06 13:06:21;;;;;;;8.25;5.72;;;22.00;59.80;;;;;;5093992;28;20071;-88
2022/11/06 13:08:56;;;;;;;7.05;4.47;;;21.90;60.10;;;;;;5108120;27;20050;-84
2022/11/06 13:11:30;;;;;;;10.43;7.53;;;21.80;59.70;;;;;;5104171;27;20034;-78